Time;durP1;ratioP1;P1;durP2;ratioP2;P2;SDS_P1;SDS_P2;PMS_P1;PMS_P2;Temp;Humidity;BMP_temperature;BMP_pressure;BME280_temperature;BME280_humidity;BME280_pressure;Samples;Min_cycle;Max_cycle;Signal;HPM_P1;HPM_P2
2023/07/16 00:00:09;;;;;;;4.93;2.60;;;;;;;;;;5010521;28;20108;-81
2023/07/16 00:02:37;;;;;;;5.90;3.00;;;;;;;;;;5006824;28;20046;-82
2023/07/16 00:05:03;;;;;;;3.80;2.55;;;;;;;;;;5003945;28;20038;-81
2023/07/16 00:07:28;;;;;;;5.50;2.78;;;;;;;;;;4997359;28;20037;-81
2023/07/16 00:09:54;;;;;;;4.30;2.80;;;;;;;;;;5002874;28;20110;-83
2023/07/16 00:12:19;;;;;;;5.63;2.90;;;;;;;;;;5001227;28;20053;-81
2023/07/16 00:14:45;;;;;;;3.60;2.85;;;;;;;;;;4998102;28;20080;-80
2023/07/16 00:17:11;;;;;;;5.78;2.72;;;;;;;;;;4976101;28;20460;-82
2023/07/16 00:19:36;;;;;;;5.05;3.30;;;;;;;;;;5001325;28;20035;-81
2023/07/16 00:22:02;;;;;;;6.85;3.30;;;;;;;;;;5007936;28;20099;-82
2023/07/16 00:24:27;;;;;;;7.05;2.95;;;;;;;;;;5011911;28;20038;-81
2023/07/16 00:26:53;;;;;;;8.45;3.35;;;;;;;;;;5007778;28;20132;-81
2023/07/16 00:29:19;;;;;;;8.57;3.38;;;;;;;;;;5001161;28;20444;-80
2023/07/16 00:31:44;;;;;;;9.55;3.22;;;;;;;;;;4999633;28;20102;-78
2023/07/16 00:34:10;;;;;;;8.95;3.53;;;;;;;;;;5003124;28;20128;-81
2023/07/16 00:36:35;;;;;;;6.55;3.38;;;;;;;;;;4998126;28;20405;-81
2023/07/16 00:39:01;;;;;;;7.60;3.40;;;;;;;;;;5009290;28;20034;-80
2023/07/16 00:41:26;;;;;;;6.00;3.30;;;;;;;;;;5016036;28;20057;-81
2023/07/16 00:43:54;;;;;;;7.90;3.45;;;;;;;;;;4999538;28;20038;-83
2023/07/16 00:46:19;;;;;;;4.82;2.95;;;;;;;;;;4992993;28;20045;-83
2023/07/16 00:48:45;;;;;;;4.28;3.10;;;;;;;;;;4990260;28;20042;-80
2023/07/16 00:51:11;;;;;;;4.90;3.13;;;;;;;;;;4995110;28;20042;-81
2023/07/16 00:53:37;;;;;;;6.10;3.00;;;;;;;;;;5001944;28;20038;-81
2023/07/16 00:56:02;;;;;;;7.10;3.00;;;;;;;;;;5009264;28;20022;-79
2023/07/16 00:58:28;;;;;;;5.97;3.28;;;;;;;;;;5005858;28;20406;-81
2023/07/16 01:00:54;;;;;;;7.43;3.17;;;;;;;;;;5004570;28;20034;-80
2023/07/16 01:03:20;;;;;;;5.65;2.88;;;;;;;;;;5006891;28;20134;-81
2023/07/16 01:06:03;;;;;;;7.97;3.28;;;;;;;;;;4999930;28;20038;-82
2023/07/16 01:08:37;;;;;;;5.70;3.22;;;;;;;;;;4988682;28;20046;-83
2023/07/16 01:11:03;;;;;;;6.43;3.25;;;;;;;;;;5017365;28;20048;-84
2023/07/16 01:13:29;;;;;;;5.05;2.78;;;;;;;;;;4999331;28;20056;-83
2023/07/16 01:15:54;;;;;;;5.25;3.00;;;;;;;;;;5010858;28;20021;-80
2023/07/16 01:18:20;;;;;;;5.18;3.30;;;;;;;;;;4993623;28;20046;-83
2023/07/16 01:20:45;;;;;;;9.57;3.08;;;;;;;;;;5003628;28;20022;-83
2023/07/16 01:23:27;;;;;;;5.88;3.10;;;;;;;;;;5004502;28;20086;-82
2023/07/16 01:26:28;;;;;;;4.82;3.15;;;;;;;;;;4986402;28;20121;-81
2023/07/16 01:29:31;;;;;;;5.63;3.10;;;;;;;;;;5011536;28;20041;-83
2023/07/16 01:31:59;;;;;;;4.28;2.90;;;;;;;;;;4992656;28;20390;-82
2023/07/16 01:34:26;;;;;;;6.20;3.10;;;;;;;;;;4996976;28;20042;-82
2023/07/16 01:36:52;;;;;;;6.03;2.97;;;;;;;;;;5012732;28;20037;-82
2023/07/16 01:39:18;;;;;;;4.30;2.90;;;;;;;;;;5016356;28;20048;-82
2023/07/16 01:41:43;;;;;;;6.03;3.15;;;;;;;;;;4993781;28;20040;-83
2023/07/16 01:44:09;;;;;;;5.60;3.10;;;;;;;;;;4992915;28;20034;-79
2023/07/16 01:46:35;;;;;;;4.75;2.80;;;;;;;;;;4998191;28;20041;-81
2023/07/16 01:49:00;;;;;;;9.13;3.50;;;;;;;;;;4995450;28;20042;-82
2023/07/16 01:51:25;;;;;;;5.85;3.15;;;;;;;;;;5004617;28;20038;-81
2023/07/16 01:53:51;;;;;;;9.75;3.42;;;;;;;;;;5008180;28;20084;-81
2023/07/16 01:56:17;;;;;;;5.45;3.08;;;;;;;;;;4998790;28;20102;-81
2023/07/16 01:58:47;;;;;;;6.43;3.63;;;;;;;;;;4998773;28;20037;-83
2023/07/16 02:01:12;;;;;;;5.00;3.33;;;;;;;;;;5003455;28;20042;-82
2023/07/16 02:03:38;;;;;;;4.82;3.38;;;;;;;;;;5010070;28;20046;-81
2023/07/16 02:06:04;;;;;;;5.82;3.42;;;;;;;;;;5000552;28;20040;-82
2023/07/16 02:08:32;;;;;;;7.90;3.30;;;;;;;;;;4988792;28;20034;-81
2023/07/16 02:10:58;;;;;;;5.22;3.20;;;;;;;;;;4987305;28;20061;-81
2023/07/16 02:13:23;;;;;;;5.05;3.17;;;;;;;;;;5001782;28;20544;-82
2023/07/16 02:15:49;;;;;;;5.55;3.50;;;;;;;;;;5004026;28;20415;-82
2023/07/16 02:18:14;;;;;;;5.68;3.60;;;;;;;;;;5003719;28;20048;-83
2023/07/16 02:20:40;;;;;;;7.40;3.80;;;;;;;;;;5009642;28;20040;-82
2023/07/16 02:23:05;;;;;;;6.70;3.60;;;;;;;;;;4989432;28;20631;-80
2023/07/16 02:25:32;;;;;;;4.40;3.17;;;;;;;;;;5003737;28;20038;-80
2023/07/16 02:27:57;;;;;;;6.30;3.58;;;;;;;;;;5007839;28;20026;-80
2023/07/16 02:30:23;;;;;;;5.68;3.60;;;;;;;;;;5001700;28;20038;-81
2023/07/16 02:32:48;;;;;;;7.68;3.50;;;;;;;;;;5004324;28;20081;-80
2023/07/16 02:35:14;;;;;;;8.40;3.65;;;;;;;;;;5001035;28;20065;-81
2023/07/16 02:37:39;;;;;;;8.60;3.60;;;;;;;;;;4998055;28;20038;-81
2023/07/16 02:40:06;;;;;;;5.40;3.42;;;;;;;;;;5004489;28;20042;-79
2023/07/16 02:42:32;;;;;;;6.18;3.40;;;;;;;;;;5010065;28;20042;-81
2023/07/16 02:44:57;;;;;;;6.70;3.20;;;;;;;;;;5013341;28;20048;-78
2023/07/16 02:47:23;;;;;;;5.80;3.38;;;;;;;;;;5011012;28;20061;-80
2023/07/16 02:49:52;;;;;;;5.40;3.47;;;;;;;;;;5008057;28;20035;-82
2023/07/16 02:52:18;;;;;;;4.28;3.05;;;;;;;;;;5005092;28;20044;-81
2023/07/16 02:54:44;;;;;;;6.03;3.60;;;;;;;;;;5003617;28;20035;-81
2023/07/16 02:57:09;;;;;;;5.53;3.45;;;;;;;;;;5001448;28;20409;-81
2023/07/16 02:59:35;;;;;;;5.63;3.47;;;;;;;;;;5003740;28;20517;-83
2023/07/16 03:02:00;;;;;;;4.88;3.47;;;;;;;;;;4999082;28;20127;-79
2023/07/16 03:04:26;;;;;;;5.78;3.50;;;;;;;;;;5004509;28;20045;-79
2023/07/16 03:06:51;;;;;;;5.10;3.20;;;;;;;;;;4994509;28;20037;-80
2023/07/16 03:09:17;;;;;;;6.10;3.30;;;;;;;;;;4988467;28;20030;-80
2023/07/16 03:11:43;;;;;;;5.20;3.53;;;;;;;;;;4998748;28;20042;-79
2023/07/16 03:14:08;;;;;;;8.65;3.50;;;;;;;;;;5011803;28;20033;-78
2023/07/16 03:16:33;;;;;;;4.47;2.90;;;;;;;;;;4991646;28;20039;-80
2023/07/16 03:18:59;;;;;;;7.15;3.60;;;;;;;;;;5005356;28;20042;-81
2023/07/16 03:21:24;;;;;;;5.63;3.53;;;;;;;;;;4991893;28;20111;-79
2023/07/16 03:23:50;;;;;;;9.80;3.65;;;;;;;;;;4973136;28;20031;-81
2023/07/16 03:26:16;;;;;;;7.00;3.45;;;;;;;;;;4993318;28;20033;-79
2023/07/16 03:28:42;;;;;;;5.53;3.50;;;;;;;;;;5001444;28;20478;-81
2023/07/16 03:31:10;;;;;;;6.03;3.38;;;;;;;;;;4997489;28;20029;-78
2023/07/16 03:33:39;;;;;;;7.05;3.42;;;;;;;;;;4990649;28;20038;-80
2023/07/16 03:36:06;;;;;;;8.20;3.35;;;;;;;;;;4996908;28;20073;-82
2023/07/16 03:38:31;;;;;;;6.50;3.35;;;;;;;;;;5007302;28;20026;-80
2023/07/16 03:40:57;;;;;;;7.80;3.20;;;;;;;;;;4999556;28;20486;-81
2023/07/16 03:43:23;;;;;;;5.05;2.88;;;;;;;;;;4994531;28;20038;-80
2023/07/16 03:45:51;;;;;;;7.32;3.50;;;;;;;;;;4983101;28;20034;-80
2023/07/16 03:48:17;;;;;;;5.88;3.53;;;;;;;;;;4999896;28;20029;-80
2023/07/16 03:50:42;;;;;;;6.75;3.20;;;;;;;;;;4981872;28;20092;-81
2023/07/16 03:53:08;;;;;;;6.78;3.22;;;;;;;;;;4999994;28;20045;-80
2023/07/16 03:55:34;;;;;;;6.22;3.40;;;;;;;;;;4998930;28;20045;-80
2023/07/16 03:57:59;;;;;;;6.05;3.42;;;;;;;;;;4997624;28;20046;-82
2023/07/16 04:00:25;;;;;;;7.00;3.30;;;;;;;;;;4998067;28;20034;-82
2023/07/16 04:02:51;;;;;;;6.00;3.30;;;;;;;;;;4996841;28;20066;-80
2023/07/16 04:05:18;;;;;;;5.90;3.20;;;;;;;;;;4973260;28;20490;-80
2023/07/16 04:07:43;;;;;;;6.65;3.28;;;;;;;;;;4999397;28;20038;-81
2023/07/16 04:10:09;;;;;;;5.93;3.40;;;;;;;;;;5002081;28;20042;-81
2023/07/16 04:12:34;;;;;;;8.40;3.28;;;;;;;;;;5000130;28;20041;-81
2023/07/16 04:15:01;;;;;;;6.10;3.38;;;;;;;;;;5001234;28;20519;-80
2023/07/16 04:17:26;;;;;;;4.30;3.03;;;;;;;;;;4997255;28;20108;-81
2023/07/16 04:19:52;;;;;;;4.72;3.45;;;;;;;;;;5005946;28;20557;-80
2023/07/16 04:22:17;;;;;;;6.20;2.95;;;;;;;;;;4998714;28;20036;-81
2023/07/16 04:24:43;;;;;;;5.68;3.33;;;;;;;;;;4998285;28;20416;-81
2023/07/16 04:27:08;;;;;;;4.88;3.17;;;;;;;;;;5005773;28;20532;-81
2023/07/16 04:29:34;;;;;;;4.85;2.95;;;;;;;;;;4982800;28;20038;-81
2023/07/16 04:31:59;;;;;;;4.30;3.05;;;;;;;;;;5004115;28;20057;-81
2023/07/16 04:34:25;;;;;;;7.68;3.30;;;;;;;;;;5002732;28;20046;-82
2023/07/16 04:36:50;;;;;;;5.63;3.05;;;;;;;;;;4993212;28;20072;-77
2023/07/16 04:39:16;;;;;;;4.97;3.10;;;;;;;;;;5005604;28;20094;-81
2023/07/16 04:41:41;;;;;;;4.60;3.30;;;;;;;;;;5016364;28;20050;-82
2023/07/16 04:44:06;;;;;;;5.50;3.15;;;;;;;;;;5012185;28;20041;-83
2023/07/16 04:46:32;;;;;;;4.30;3.20;;;;;;;;;;5008421;28;20041;-82
2023/07/16 04:48:58;;;;;;;4.53;2.92;;;;;;;;;;5006439;28;20038;-81
2023/07/16 04:51:23;;;;;;;4.15;2.92;;;;;;;;;;5006475;28;20127;-83
2023/07/16 04:53:50;;;;;;;7.57;3.20;;;;;;;;;;5000300;28;20034;-81
2023/07/16 04:56:16;;;;;;;7.88;3.33;;;;;;;;;;5003829;28;20045;-83
2023/07/16 04:58:42;;;;;;;5.43;3.08;;;;;;;;;;5001126;28;20038;-82
2023/07/16 05:01:08;;;;;;;4.60;3.13;;;;;;;;;;5002920;28;20097;-83
2023/07/16 05:03:34;;;;;;;3.80;3.03;;;;;;;;;;5004695;28;20069;-81
2023/07/16 05:05:59;;;;;;;5.75;3.22;;;;;;;;;;5005990;28;20045;-83
2023/07/16 05:08:25;;;;;;;4.85;3.05;;;;;;;;;;5012439;28;20657;-82
2023/07/16 05:10:50;;;;;;;5.68;3.30;;;;;;;;;;5010602;28;20042;-82
2023/07/16 05:13:16;;;;;;;9.35;3.75;;;;;;;;;;5000694;28;20040;-82
2023/07/16 05:15:44;;;;;;;6.72;3.40;;;;;;;;;;5005627;28;20064;-81
2023/07/16 05:18:09;;;;;;;7.22;3.72;;;;;;;;;;4999005;28;20042;-82
2023/07/16 05:20:35;;;;;;;6.65;3.97;;;;;;;;;;5003453;28;20093;-82
2023/07/16 05:23:01;;;;;;;5.05;3.50;;;;;;;;;;5013876;28;20056;-83
2023/07/16 05:25:26;;;;;;;7.70;3.42;;;;;;;;;;5018055;28;20045;-82
2023/07/16 05:27:51;;;;;;;6.93;3.70;;;;;;;;;;5014359;28;20391;-82
2023/07/16 05:30:17;;;;;;;9.07;3.90;;;;;;;;;;4992669;28;20048;-82
2023/07/16 05:32:42;;;;;;;6.22;3.53;;;;;;;;;;5007602;28;20041;-82
2023/07/16 05:35:08;;;;;;;8.93;3.70;;;;;;;;;;5000918;28;20050;-82
2023/07/16 05:37:34;;;;;;;6.47;3.72;;;;;;;;;;5012019;28;20076;-83
2023/07/16 05:39:59;;;;;;;6.43;3.65;;;;;;;;;;5005105;28;20089;-83
2023/07/16 05:42:25;;;;;;;6.57;3.60;;;;;;;;;;5002068;28;20165;-83
2023/07/16 05:44:50;;;;;;;5.70;3.90;;;;;;;;;;5001752;28;20038;-83
2023/07/16 05:47:15;;;;;;;6.20;3.92;;;;;;;;;;5001519;28;20050;-83
2023/07/16 05:49:41;;;;;;;5.65;3.70;;;;;;;;;;5004199;28;20674;-82
2023/07/16 05:52:08;;;;;;;4.95;3.92;;;;;;;;;;5004928;28;20093;-82
2023/07/16 05:54:33;;;;;;;7.28;3.58;;;;;;;;;;5011812;28;20081;-81
2023/07/16 05:57:00;;;;;;;7.38;3.78;;;;;;;;;;5011371;28;20432;-82
2023/07/16 05:59:26;;;;;;;6.82;4.45;;;;;;;;;;4999779;28;20038;-81
2023/07/16 06:01:51;;;;;;;10.50;4.00;;;;;;;;;;5006515;28;20507;-81
2023/07/16 06:04:17;;;;;;;6.07;3.80;;;;;;;;;;5005889;28;20098;-81
2023/07/16 06:06:42;;;;;;;6.13;3.80;;;;;;;;;;4982684;28;20064;-82
2023/07/16 06:09:08;;;;;;;5.72;3.80;;;;;;;;;;5004850;28;20084;-82
2023/07/16 06:11:33;;;;;;;5.13;3.70;;;;;;;;;;5008230;28;20042;-80
2023/07/16 06:13:59;;;;;;;6.90;4.05;;;;;;;;;;4988115;28;20036;-81
2023/07/16 06:16:24;;;;;;;7.82;3.97;;;;;;;;;;5008362;28;20049;-80
2023/07/16 06:18:50;;;;;;;5.78;4.05;;;;;;;;;;5006461;28;20030;-81
2023/07/16 06:21:15;;;;;;;6.20;3.90;;;;;;;;;;5007526;28;20397;-81
2023/07/16 06:23:42;;;;;;;8.27;4.50;;;;;;;;;;5005778;28;20026;-78
2023/07/16 06:26:07;;;;;;;8.10;4.20;;;;;;;;;;5007837;28;20057;-81
2023/07/16 06:28:33;;;;;;;4.90;4.03;;;;;;;;;;4998639;28;20366;-79
2023/07/16 06:30:58;;;;;;;7.38;4.43;;;;;;;;;;5005527;28;20033;-79
2023/07/16 06:33:25;;;;;;;8.38;4.13;;;;;;;;;;5005606;28;20030;-80
2023/07/16 06:35:50;;;;;;;5.40;4.15;;;;;;;;;;4993678;28;20030;-79
2023/07/16 06:38:16;;;;;;;7.88;4.40;;;;;;;;;;5006801;28;20048;-79
2023/07/16 06:40:49;;;;;;;7.28;4.35;;;;;;;;;;4998650;28;20038;-79
2023/07/16 06:43:16;;;;;;;6.53;4.20;;;;;;;;;;5007328;28;20064;-78
2023/07/16 06:45:42;;;;;;;6.68;3.72;;;;;;;;;;5007071;28;20033;-79
2023/07/16 06:48:08;;;;;;;7.30;4.10;;;;;;;;;;5008042;28;20022;-80
2023/07/16 06:50:33;;;;;;;5.47;3.50;;;;;;;;;;4995701;28;20034;-82
2023/07/16 06:52:59;;;;;;;4.07;2.97;;;;;;;;;;5008380;28;20517;-81
2023/07/16 06:55:24;;;;;;;4.18;2.80;;;;;;;;;;5010415;28;20044;-79
2023/07/16 06:57:50;;;;;;;4.43;2.70;;;;;;;;;;5009456;28;20060;-80
2023/07/16 07:00:16;;;;;;;3.22;2.33;;;;;;;;;;4993627;28;20458;-81
2023/07/16 07:02:41;;;;;;;2.85;2.20;;;;;;;;;;5009933;28;20038;-80
2023/07/16 07:05:07;;;;;;;4.03;2.33;;;;;;;;;;5009253;28;20531;-80
2023/07/16 07:07:33;;;;;;;3.78;2.40;;;;;;;;;;5006810;28;20034;-81
2023/07/16 07:09:58;;;;;;;4.22;2.50;;;;;;;;;;4995325;28;20053;-81
2023/07/16 07:12:24;;;;;;;3.58;2.20;;;;;;;;;;5006394;28;20034;-82
2023/07/16 07:14:49;;;;;;;5.65;2.60;;;;;;;;;;5010575;28;20040;-81
2023/07/16 07:17:15;;;;;;;3.40;2.70;;;;;;;;;;5008368;28;20084;-85
2023/07/16 07:19:41;;;;;;;3.78;2.38;;;;;;;;;;5002701;28;20113;-80
2023/07/16 07:22:07;;;;;;;3.85;2.25;;;;;;;;;;5001531;28;20501;-80
2023/07/16 07:24:32;;;;;;;3.92;2.38;;;;;;;;;;4991815;28;20043;-80
2023/07/16 07:26:58;;;;;;;18.85;3.05;;;;;;;;;;5011121;28;20504;-84
2023/07/16 07:29:23;;;;;;;7.15;2.50;;;;;;;;;;5004406;28;20123;-84
2023/07/16 07:31:49;;;;;;;4.65;2.05;;;;;;;;;;4999239;28;20082;-84
2023/07/16 07:34:14;;;;;;;6.72;2.15;;;;;;;;;;4991403;28;20034;-84
2023/07/16 07:36:39;;;;;;;5.00;1.80;;;;;;;;;;5004075;28;20114;-85
2023/07/16 07:39:05;;;;;;;5.88;2.08;;;;;;;;;;5002247;28;20038;-82
2023/07/16 07:41:31;;;;;;;2.85;2.13;;;;;;;;;;4989320;28;20108;-81
2023/07/16 07:43:56;;;;;;;2.20;1.90;;;;;;;;;;5003878;28;20453;-81
2023/07/16 07:46:22;;;;;;;3.00;1.90;;;;;;;;;;5002482;28;20034;-80
2023/07/16 07:48:47;;;;;;;2.30;1.70;;;;;;;;;;4986180;28;20034;-82
2023/07/16 07:51:13;;;;;;;3.42;2.05;;;;;;;;;;5003263;28;20089;-83
2023/07/16 07:53:38;;;;;;;3.53;1.80;;;;;;;;;;4994643;28;20513;-82
2023/07/16 07:56:04;;;;;;;2.88;1.80;;;;;;;;;;4993497;28;20060;-81
2023/07/16 07:58:29;;;;;;;2.08;1.88;;;;;;;;;;4985206;28;20030;-81
2023/07/16 08:00:55;;;;;;;3.80;2.00;;;;;;;;;;5003841;28;20502;-83
2023/07/16 08:03:20;;;;;;;2.83;2.17;;;;;;;;;;4984557;28;20045;-80
2023/07/16 08:05:49;;;;;;;3.10;2.03;;;;;;;;;;5007477;28;20114;-81
2023/07/16 08:08:14;;;;;;;2.30;1.90;;;;;;;;;;5005686;28;20031;-84
2023/07/16 08:10:40;;;;;;;2.97;2.03;;;;;;;;;;4998013;28;20046;-83
2023/07/16 08:13:06;;;;;;;3.53;2.17;;;;;;;;;;5002990;28;20029;-81
2023/07/16 08:15:31;;;;;;;4.85;2.45;;;;;;;;;;5002663;28;20108;-82
2023/07/16 08:17:59;;;;;;;2.97;1.83;;;;;;;;;;5002915;28;20046;-83
2023/07/16 08:20:26;;;;;;;5.03;2.10;;;;;;;;;;5004727;28;20077;-82
2023/07/16 08:22:51;;;;;;;3.20;1.70;;;;;;;;;;4998211;28;20416;-81
2023/07/16 08:25:17;;;;;;;3.70;1.70;;;;;;;;;;5003884;28;20034;-80
2023/07/16 08:27:42;;;;;;;2.72;1.80;;;;;;;;;;5004624;28;20037;-82
2023/07/16 08:30:08;;;;;;;2.72;1.70;;;;;;;;;;4987741;28;20046;-81
2023/07/16 08:32:33;;;;;;;2.42;1.40;;;;;;;;;;4999915;28;20105;-80
2023/07/16 08:34:59;;;;;;;2.80;1.45;;;;;;;;;;5000911;28;20133;-85
2023/07/16 08:37:24;;;;;;;1.60;1.10;;;;;;;;;;4996165;28;20018;-81
2023/07/16 08:39:55;;;;;;;1.65;1.25;;;;;;;;;;5003110;28;20038;-81
2023/07/16 08:42:21;;;;;;;1.30;1.10;;;;;;;;;;5010221;28;20038;-83
2023/07/16 08:44:50;;;;;;;2.28;1.23;;;;;;;;;;5006931;28;20080;-85
2023/07/16 08:47:16;;;;;;;1.42;1.15;;;;;;;;;;5007886;28;20029;-84
2023/07/16 08:49:44;;;;;;;3.38;1.20;;;;;;;;;;4997652;28;20037;-83
2023/07/16 08:52:10;;;;;;;1.70;1.60;;;;;;;;;;4988672;28;20046;-83
2023/07/16 08:54:36;;;;;;;3.60;1.50;;;;;;;;;;5002281;28;20046;-85
2023/07/16 08:57:01;;;;;;;2.00;1.77;;;;;;;;;;4999300;28;20034;-83
2023/07/16 08:59:28;;;;;;;3.30;1.60;;;;;;;;;;4980529;28;20557;-82
2023/07/16 09:01:53;;;;;;;2.88;1.90;;;;;;;;;;4994156;28;20383;-85
2023/07/16 09:04:19;;;;;;;2.13;1.80;;;;;;;;;;4994655;28;20049;-82
2023/07/16 09:06:44;;;;;;;3.80;1.80;;;;;;;;;;5005969;28;20103;-83
2023/07/16 09:09:20;;;;;;;2.00;1.70;;;;;;;;;;4997141;28;20034;-84
2023/07/16 09:11:47;;;;;;;2.10;1.90;;;;;;;;;;5011361;28;20049;-85
2023/07/16 09:14:16;;;;;;;3.78;2.00;;;;;;;;;;5006401;28;20048;-83
2023/07/16 09:16:41;;;;;;;10.63;2.22;;;;;;;;;;5003866;28;20408;-84
2023/07/16 09:19:15;;;;;;;3.03;2.20;;;;;;;;;;4998874;28;20033;-83
2023/07/16 09:21:40;;;;;;;;;;;;;;;;;;4993736;28;20226;-85
2023/07/16 09:24:08;;;;;;;2.83;2.17;;;;;;;;;;4998797;28;20457;-87
2023/07/16 09:26:36;;;;;;;3.97;2.30;;;;;;;;;;5011419;28;20040;-88
2023/07/16 09:29:06;;;;;;;3.42;2.40;;;;;;;;;;4997427;28;20040;-86
2023/07/16 09:31:31;;;;;;;2.50;2.30;;;;;;;;;;5002963;28;20740;-86
2023/07/16 09:33:58;;;;;;;3.53;2.17;;;;;;;;;;5006636;28;20038;-88
2023/07/16 09:36:25;;;;;;;4.22;2.30;;;;;;;;;;5006594;28;20048;-86
2023/07/16 09:38:54;;;;;;;3.80;2.30;;;;;;;;;;4995303;28;20601;-87
2023/07/16 09:41:20;;;;;;;3.13;2.40;;;;;;;;;;5002461;28;20421;-84
2023/07/16 09:43:46;;;;;;;3.53;2.38;;;;;;;;;;4999534;28;20058;-83
2023/07/16 09:46:12;;;;;;;3.50;2.15;;;;;;;;;;4997171;28;20042;-83
2023/07/16 09:48:37;;;;;;;3.65;2.10;;;;;;;;;;4984891;28;20030;-86
2023/07/16 09:51:05;;;;;;;3.97;2.15;;;;;;;;;;5001245;28;20042;-81
2023/07/16 09:53:32;;;;;;;3.72;2.08;;;;;;;;;;5006299;28;20046;-84
2023/07/16 09:55:59;;;;;;;4.80;2.15;;;;;;;;;;4996365;28;20042;-84
2023/07/16 09:58:26;;;;;;;2.63;1.90;;;;;;;;;;4993654;28;20416;-84
2023/07/16 10:00:52;;;;;;;4.40;2.10;;;;;;;;;;5003547;28;20046;-84
2023/07/16 10:03:18;;;;;;;3.30;1.80;;;;;;;;;;5003098;28;20080;-85
2023/07/16 10:05:43;;;;;;;2.30;1.90;;;;;;;;;;4994669;28;20089;-85
2023/07/16 10:08:17;;;;;;;4.07;1.98;;;;;;;;;;5000494;28;20034;-84
2023/07/16 10:10:54;;;;;;;3.00;2.05;;;;;;;;;;4997646;28;20037;-87
2023/07/16 10:13:22;;;;;;;3.17;2.15;;;;;;;;;;5010411;28;20066;-87
2023/07/16 10:15:56;;;;;;;3.22;2.42;;;;;;;;;;4999201;28;20037;-87
2023/07/16 10:18:33;;;;;;;3.28;2.50;;;;;;;;;;5002528;28;20039;-88
2023/07/16 10:21:09;;;;;;;3.58;2.35;;;;;;;;;;4999665;28;20068;-87
2023/07/16 10:23:43;;;;;;;3.50;2.40;;;;;;;;;;5007876;28;20057;-87
2023/07/16 10:26:11;;;;;;;2.97;2.17;;;;;;;;;;4994661;28;20042;-87
2023/07/16 10:28:37;;;;;;;3.17;2.20;;;;;;;;;;4999960;28;20073;-88
2023/07/16 10:31:03;;;;;;;3.35;2.20;;;;;;;;;;4998527;28;20046;-88
2023/07/16 10:33:28;;;;;;;2.80;2.22;;;;;;;;;;4996368;28;20030;-86
2023/07/16 10:35:56;;;;;;;2.63;1.90;;;;;;;;;;4995909;28;20573;-83
2023/07/16 10:38:22;;;;;;;2.72;2.03;;;;;;;;;;5000980;28;20038;-86
2023/07/16 10:40:47;;;;;;;2.60;1.88;;;;;;;;;;5007104;28;20045;-85
2023/07/16 10:43:14;;;;;;;3.22;1.80;;;;;;;;;;4991141;28;20026;-83
2023/07/16 10:45:40;;;;;;;3.08;1.90;;;;;;;;;;5006292;28;20035;-84
2023/07/16 10:48:05;;;;;;;4.95;2.00;;;;;;;;;;5004973;28;20046;-86
2023/07/16 10:50:35;;;;;;;2.20;1.70;;;;;;;;;;5000153;28;20034;-87
2023/07/16 10:53:00;;;;;;;2.08;1.85;;;;;;;;;;4998925;28;20088;-85
2023/07/16 10:55:28;;;;;;;4.18;1.90;;;;;;;;;;4991341;28;20030;-85
2023/07/16 10:57:53;;;;;;;2.03;1.60;;;;;;;;;;4999594;28;20066;-88
2023/07/16 11:00:21;;;;;;;2.00;1.58;;;;;;;;;;5000111;28;20050;-89
2023/07/16 11:02:47;;;;;;;2.28;1.80;;;;;;;;;;4992795;28;20029;-86
2023/07/16 11:05:14;;;;;;;3.05;1.60;;;;;;;;;;5001825;28;20041;-87
2023/07/16 11:07:46;;;;;;;3.22;1.70;;;;;;;;;;5005367;28;20057;-87
2023/07/16 11:10:12;;;;;;;2.28;1.70;;;;;;;;;;5009243;28;20046;-87
2023/07/16 11:12:38;;;;;;;3.58;1.63;;;;;;;;;;5003828;28;20047;-86
2023/07/16 11:15:03;;;;;;;2.30;1.60;;;;;;;;;;4997711;28;20545;-86
2023/07/16 11:17:29;;;;;;;4.03;1.70;;;;;;;;;;4967273;28;20038;-88
2023/07/16 11:19:55;;;;;;;2.47;1.60;;;;;;;;;;4996813;28;20034;-87
2023/07/16 11:22:29;;;;;;;2.42;1.60;;;;;;;;;;4996909;28;20038;-88
2023/07/16 11:24:54;;;;;;;2.35;1.70;;;;;;;;;;5005829;28;20504;-88
2023/07/16 11:27:22;;;;;;;2.45;1.60;;;;;;;;;;4995420;28;20045;-86
2023/07/16 11:29:52;;;;;;;2.65;2.00;;;;;;;;;;4996909;28;20037;-89
2023/07/16 11:32:38;;;;;;;3.70;1.85;;;;;;;;;;4998269;28;20120;-88
2023/07/16 11:35:05;;;;;;;3.10;1.77;;;;;;;;;;5005251;28;20048;-88
2023/07/16 11:37:32;;;;;;;5.38;1.60;;;;;;;;;;4994378;28;20415;-88
2023/07/16 11:40:01;;;;;;;2.42;1.60;;;;;;;;;;5010638;28;20033;-88
2023/07/16 11:42:34;;;;;;;1.77;1.50;;;;;;;;;;5002454;28;20410;-88
2023/07/16 11:45:00;;;;;;;1.80;1.40;;;;;;;;;;5003561;28;20038;-88
2023/07/16 11:47:27;;;;;;;3.03;1.50;;;;;;;;;;4998081;28;20515;-87
2023/07/16 11:49:53;;;;;;;2.55;1.73;;;;;;;;;;4995042;28;20034;-89
2023/07/16 11:52:26;;;;;;;2.20;1.50;;;;;;;;;;5004067;28;20572;-88
2023/07/16 11:54:52;;;;;;;2.42;1.63;;;;;;;;;;5006122;28;20034;-88
2023/07/16 11:57:18;;;;;;;2.83;1.60;;;;;;;;;;5008470;28;20046;-86
2023/07/16 11:59:44;;;;;;;3.25;1.50;;;;;;;;;;5004547;28;20046;-89
2023/07/16 12:02:10;;;;;;;2.05;1.60;;;;;;;;;;5003235;28;20026;-86
2023/07/16 12:04:35;;;;;;;2.70;1.50;;;;;;;;;;5001356;28;20085;-86
2023/07/16 12:07:01;;;;;;;2.97;1.60;;;;;;;;;;4999888;28;20069;-88
2023/07/16 12:09:26;;;;;;;3.80;1.63;;;;;;;;;;5000322;28;20046;-87
2023/07/16 12:11:52;;;;;;;2.03;1.60;;;;;;;;;;5010585;28;20034;-87
2023/07/16 12:14:17;;;;;;;2.63;1.77;;;;;;;;;;4996077;28;20038;-89
2023/07/16 12:16:43;;;;;;;1.98;1.50;;;;;;;;;;5002519;28;20124;-88
2023/07/16 12:19:09;;;;;;;2.63;1.60;;;;;;;;;;5001688;28;20040;-89
2023/07/16 12:21:35;;;;;;;3.80;1.70;;;;;;;;;;5002301;28;20035;-87
2023/07/16 12:24:01;;;;;;;3.42;1.73;;;;;;;;;;4999436;28;20444;-86
2023/07/16 12:26:27;;;;;;;1.77;1.40;;;;;;;;;;4997394;28;20133;-84
2023/07/16 12:28:52;;;;;;;1.80;1.60;;;;;;;;;;5000379;28;20061;-86
2023/07/16 12:31:20;;;;;;;1.67;1.40;;;;;;;;;;4999365;28;20042;-85
2023/07/16 12:33:45;;;;;;;2.10;1.55;;;;;;;;;;4997384;28;20034;-85
2023/07/16 12:36:11;;;;;;;2.13;1.65;;;;;;;;;;4998908;28;20041;-87
2023/07/16 12:38:37;;;;;;;1.85;1.58;;;;;;;;;;5003020;28;20405;-85
2023/07/16 12:41:03;;;;;;;2.75;1.60;;;;;;;;;;4989615;28;20041;-87
2023/07/16 12:43:28;;;;;;;1.92;1.52;;;;;;;;;;5009135;28;20038;-87
2023/07/16 12:45:54;;;;;;;2.95;1.60;;;;;;;;;;5006044;28;20049;-86
2023/07/16 12:48:19;;;;;;;1.92;1.60;;;;;;;;;;5002406;28;20065;-87
2023/07/16 12:50:45;;;;;;;3.53;1.63;;;;;;;;;;5003154;28;20068;-88
2023/07/16 12:53:10;;;;;;;3.90;1.80;;;;;;;;;;5002772;28;20030;-88
2023/07/16 12:55:36;;;;;;;2.88;1.75;;;;;;;;;;5003816;28;20034;-84
2023/07/16 12:58:01;;;;;;;4.55;1.90;;;;;;;;;;5005641;28;20044;-83
2023/07/16 13:00:28;;;;;;;4.13;1.90;;;;;;;;;;5020522;28;20133;-87
2023/07/16 13:02:53;;;;;;;3.63;2.13;;;;;;;;;;4979808;28;20496;-86
2023/07/16 13:05:19;;;;;;;3.47;2.10;;;;;;;;;;5015970;28;20062;-87
2023/07/16 13:07:44;;;;;;;3.58;2.20;;;;;;;;;;5013153;28;20034;-86
2023/07/16 13:10:10;;;;;;;3.15;2.30;;;;;;;;;;5012095;28;20050;-87
2023/07/16 13:12:35;;;;;;;6.13;2.35;;;;;;;;;;5010779;28;20034;-87
2023/07/16 13:15:01;;;;;;;3.10;2.33;;;;;;;;;;5013268;28;20046;-86
2023/07/16 13:17:27;;;;;;;3.00;2.30;;;;;;;;;;4992363;28;20141;-86
2023/07/16 13:19:52;;;;;;;3.05;2.30;;;;;;;;;;5006305;28;20042;-87
2023/07/16 13:22:17;;;;;;;3.28;2.20;;;;;;;;;;5001310;28;20044;-85
2023/07/16 13:24:43;;;;;;;3.75;2.35;;;;;;;;;;5011595;28;20033;-87
2023/07/16 13:27:29;;;;;;;4.22;2.30;;;;;;;;;;4997750;28;20391;-86
2023/07/16 13:29:54;;;;;;;2.42;2.20;;;;;;;;;;5010947;28;20145;-87
2023/07/16 13:32:20;;;;;;;3.42;2.50;;;;;;;;;;5007198;28;20070;-85
2023/07/16 13:34:45;;;;;;;3.25;2.42;;;;;;;;;;4998067;28;20045;-86
2023/07/16 13:37:11;;;;;;;3.63;2.40;;;;;;;;;;5002998;28;20455;-87
2023/07/16 13:39:36;;;;;;;4.20;2.28;;;;;;;;;;5002775;28;20086;-87
2023/07/16 13:42:02;;;;;;;2.53;2.10;;;;;;;;;;4999290;28;20656;-84
2023/07/16 13:44:27;;;;;;;3.17;2.50;;;;;;;;;;5007222;28;20037;-88
2023/07/16 13:46:53;;;;;;;3.90;2.47;;;;;;;;;;5015451;28;20045;-86
2023/07/16 13:49:18;;;;;;;3.13;2.63;;;;;;;;;;4998528;28;20410;-88
2023/07/16 13:51:44;;;;;;;3.33;2.47;;;;;;;;;;5005185;28;20058;-86
2023/07/16 13:54:11;;;;;;;3.10;2.22;;;;;;;;;;5004681;28;20050;-85
2023/07/16 13:56:37;;;;;;;3.80;2.40;;;;;;;;;;5003515;28;20089;-84
2023/07/16 13:59:03;;;;;;;5.07;2.30;;;;;;;;;;5000179;28;20402;-84
2023/07/16 14:01:29;;;;;;;3.08;2.53;;;;;;;;;;5006982;28;20133;-83
2023/07/16 14:03:55;;;;;;;3.03;2.40;;;;;;;;;;5004155;28;20465;-85
2023/07/16 14:06:20;;;;;;;3.35;2.35;;;;;;;;;;4997713;28;20409;-84
2023/07/16 14:08:46;;;;;;;2.80;2.20;;;;;;;;;;5001859;28;20113;-83
2023/07/16 14:11:11;;;;;;;4.18;2.10;;;;;;;;;;5004052;28;20076;-84
2023/07/16 14:13:37;;;;;;;2.72;2.20;;;;;;;;;;5002861;28;20049;-87
2023/07/16 14:16:03;;;;;;;2.90;2.00;;;;;;;;;;5012467;28;20050;-84
2023/07/16 14:18:28;;;;;;;3.25;2.50;;;;;;;;;;5009758;28;20092;-85
2023/07/16 14:20:54;;;;;;;2.97;2.25;;;;;;;;;;5008755;28;20038;-84
2023/07/16 14:23:19;;;;;;;2.75;2.10;;;;;;;;;;5005408;28;20110;-85
2023/07/16 14:25:45;;;;;;;4.15;2.40;;;;;;;;;;5001673;28;20034;-85
2023/07/16 14:28:10;;;;;;;4.57;2.25;;;;;;;;;;4981904;28;20653;-84
2023/07/16 14:30:36;;;;;;;3.42;2.17;;;;;;;;;;5003586;28;20144;-84
2023/07/16 14:33:03;;;;;;;4.32;2.25;;;;;;;;;;5000006;28;20174;-87
2023/07/16 14:35:30;;;;;;;4.13;2.05;;;;;;;;;;4994183;28;20052;-86
2023/07/16 14:37:55;;;;;;;3.38;2.10;;;;;;;;;;5006954;28;20032;-84